Terminal Aerodrome Forecast
Issued by NWS Portland, OR

Home | Current Version | Previous Version | Text Only | Print | Product List | Glossary On
Versions: 1 2 3 4 5 6 7 8 9 10 11 12 13 14 15 16 17
000
FTUS46 KPQR 272154 AAA
TAFHIO
TAF AMD
KHIO 272154Z 2722/2818 24012G18KT P6SM -SHRA BKN025 OVC050
     FM280000 22006KT P6SM -SHRA SCT025 BKN050
     FM280300 21005KT P6SM VCSH SCT025 BKN050
     FM280900 15005KT P6SM SCT025 BKN050=

USA.gov is the U.S. government's official web portal to all federal, state and local government web resources and services.